Time;durP1;ratioP1;P1;durP2;ratioP2;P2;SDS_P1;SDS_P2;PMS_P1;PMS_P2;Temp;Humidity;BMP_temperature;BMP_pressure;BME280_temperature;BME280_humidity;BME280_pressure;Samples;Min_cycle;Max_cycle;Signal;HPM_P1;HPM_P2
2023/06/02 00:01:36;;;;;;;8.77;6.23;;;11.70;26.80;;;;;;5119648;28;20523;-59
2023/06/02 00:04:04;;;;;;;7.07;5.80;;;11.80;90.80;;;;;;5119817;28;20495;-59
2023/06/02 00:06:34;;;;;;;6.63;6.03;;;11.80;1.80;;;;;;5120026;28;20578;-59
2023/06/02 00:09:03;;;;;;;10.67;6.03;;;11.90;1.00;;;;;;5119642;28;20462;-59
2023/06/02 00:11:34;;;;;;;8.23;6.23;;;11.90;3.20;;;;;;5120086;28;20907;-59
2023/06/02 00:14:03;;;;;;;7.53;6.73;;;11.80;1.00;;;;;;5121157;28;20729;-60
2023/06/02 00:16:31;;;;;;;9.20;6.20;;;11.70;1.00;;;;;;5120309;28;20459;-60
2023/06/02 00:18:58;;;;;;;9.03;5.97;;;11.70;14.70;;;;;;5119375;28;20463;-59
2023/06/02 00:21:27;;;;;;;9.03;5.83;;;11.70;1.20;;;;;;5119886;28;20810;-60
2023/06/02 00:23:56;;;;;;;8.47;6.30;;;11.80;97.80;;;;;;5119692;28;20510;-60
2023/06/02 00:26:23;;;;;;;6.00;5.00;;;11.80;1.60;;;;;;5119612;28;20902;-59
2023/06/02 00:28:51;;;;;;;7.20;6.10;;;11.80;4.70;;;;;;5119467;28;20542;-59
2023/06/02 00:31:18;;;;;;;9.10;5.90;;;11.80;26.60;;;;;;5119289;28;20484;-59
2023/06/02 00:33:46;;;;;;;8.87;5.60;;;12.00;1.00;;;;;;5119413;28;20471;-60
2023/06/02 00:36:13;;;;;;;6.73;6.13;;;11.90;1.00;;;;;;5118577;28;20456;-60
2023/06/02 00:38:42;;;;;;;11.00;6.33;;;11.90;1.00;;;;;;5118880;28;20467;-59
2023/06/02 00:41:10;;;;;;;6.83;5.33;;;11.80;1.00;;;;;;5119232;28;20760;-60
2023/06/02 00:43:38;;;;;;;7.93;6.70;;;11.80;17.70;;;;;;5119624;28;20859;-60
2023/06/02 00:46:05;;;;;;;8.23;5.30;;;11.80;1.00;;;;;;5119630;28;20487;-60
2023/06/02 00:48:32;;;;;;;9.83;7.10;;;11.80;1.00;;;;;;5119601;28;20460;-60
2023/06/02 00:50:59;;;;;;;7.17;5.47;;;11.70;1.00;;;;;;5118663;28;20455;-59
2023/06/02 00:53:27;;;;;;;7.17;6.37;;;11.80;1.00;;;;;;5118911;28;20513;-59
2023/06/02 00:55:55;;;;;;;6.33;5.73;;;11.70;1.00;;;;;;5119335;28;20462;-60
2023/06/02 00:58:25;;;;;;;6.73;6.03;;;11.70;5.10;;;;;;5123392;28;20463;-61
2023/06/02 01:00:52;;;;;;;7.77;6.17;;;11.70;1.00;;;;;;5119257;28;20610;-61
2023/06/02 01:03:21;;;;;;;7.63;6.93;;;11.70;1.00;;;;;;5119010;28;20586;-59
2023/06/02 01:05:53;;;;;;;9.10;6.47;;;11.60;1.00;;;;;;5118830;28;20491;-59
2023/06/02 01:08:21;;;;;;;8.70;6.90;;;11.50;1.00;;;;;;5118857;28;20562;-59
2023/06/02 01:10:49;;;;;;;9.43;8.23;;;11.40;1.00;;;;;;5118690;28;20467;-60
2023/06/02 01:13:16;;;;;;;12.00;8.10;;;11.40;15.30;;;;;;5118434;28;20774;-59
2023/06/02 01:15:47;;;;;;;8.87;7.97;;;11.30;13.40;;;;;;5118555;28;20563;-60
2023/06/02 01:18:15;;;;;;;10.60;8.47;;;11.40;51.70;;;;;;5118889;28;20463;-60
2023/06/02 01:20:47;;;;;;;16.20;11.80;;;11.30;48.70;;;;;;5118436;28;20484;-60
2023/06/02 01:23:18;;;;;;;13.37;11.00;;;11.40;1.00;;;;;;5118365;28;20463;-59
2023/06/02 01:25:47;;;;;;;11.90;9.13;;;11.40;1.00;;;;;;5118412;28;20487;-60
2023/06/02 01:28:14;;;;;;;11.17;9.33;;;11.40;1.00;;;;;;5118506;28;20524;-60
2023/06/02 01:30:42;;;;;;;9.73;7.80;;;11.30;97.40;;;;;;5117997;28;20460;-60
2023/06/02 01:33:16;;;;;;;9.50;7.60;;;11.30;1.00;;;;;;5118314;28;20459;-60
2023/06/02 01:35:46;;;;;;;8.60;7.40;;;11.30;1.00;;;;;;5118321;28;20459;-60
2023/06/02 01:38:14;;;;;;;8.77;7.60;;;11.30;28.10;;;;;;5120430;28;20459;-60
2023/06/02 01:40:42;;;;;;;11.80;8.20;;;11.20;1.00;;;;;;5119768;28;20765;-60
2023/06/02 01:43:12;;;;;;;8.83;6.80;;;11.20;23.20;;;;;;5119821;28;20465;-59
2023/06/02 01:45:42;;;;;;;11.47;7.53;;;11.10;1.00;;;;;;5119136;28;20484;-60
2023/06/02 01:48:10;;;;;;;11.70;7.23;;;11.00;99.90;;;;;;5118287;28;20467;-59
2023/06/02 01:50:38;;;;;;;12.80;6.63;;;11.00;63.40;;;;;;5117772;28;20467;-59
2023/06/02 01:53:06;;;;;;;8.33;6.87;;;11.00;99.90;;;;;;5117808;28;20881;-60
2023/06/02 01:55:33;;;;;;;9.67;6.90;;;11.10;99.90;;;;;;5118630;28;20508;-59
2023/06/02 01:58:01;;;;;;;7.40;6.00;;;10.90;99.90;;;;;;5118110;28;20463;-59
2023/06/02 02:00:29;;;;;;;10.50;6.70;;;11.00;99.90;;;;;;5117614;28;20459;-59
2023/06/02 02:02:58;;;;;;;12.00;7.07;;;11.00;99.70;;;;;;5117427;28;20487;-60
2023/06/02 02:05:26;;;;;;;9.40;6.33;;;10.90;1.00;;;;;;5117928;28;20487;-60
2023/06/02 02:07:53;;;;;;;12.37;6.90;;;10.80;19.80;;;;;;5118277;28;20505;-59
2023/06/02 02:10:20;;;;;;;8.97;7.07;;;10.80;15.40;;;;;;5118319;28;20935;-59
2023/06/02 02:12:47;;;;;;;10.67;6.67;;;10.70;1.00;;;;;;5118524;28;20463;-59
2023/06/02 02:15:15;;;;;;;9.13;6.60;;;10.50;18.10;;;;;;5117874;28;20455;-59
2023/06/02 02:17:47;;;;;;;12.53;6.53;;;10.60;61.10;;;;;;5117800;28;20561;-59
2023/06/02 02:20:16;;;;;;;8.73;6.63;;;10.70;17.80;;;;;;5118246;28;20739;-60
2023/06/02 02:22:43;;;;;;;8.00;6.57;;;10.80;1.00;;;;;;5117503;28;20516;-60
2023/06/02 02:25:10;;;;;;;10.30;6.60;;;10.80;1.00;;;;;;5117675;28;20521;-59
2023/06/02 02:27:38;;;;;;;11.77;7.23;;;10.70;1.00;;;;;;5117629;28;20517;-60
2023/06/02 02:30:06;;;;;;;13.27;7.37;;;10.70;1.00;;;;;;5117829;28;20760;-59
2023/06/02 02:32:36;;;;;;;7.20;6.40;;;10.60;1.00;;;;;;5117948;28;20460;-60
2023/06/02 02:35:05;;;;;;;9.60;6.60;;;10.60;1.00;;;;;;5117525;28;20464;-59
2023/06/02 02:37:32;;;;;;;7.67;6.87;;;10.60;1.00;;;;;;5117752;28;20470;-59
2023/06/02 02:40:00;;;;;;;10.50;7.23;;;10.50;1.00;;;;;;5118327;28;20802;-59
2023/06/02 02:42:27;;;;;;;11.03;7.20;;;10.50;1.00;;;;;;5118219;28;20470;-59
2023/06/02 02:44:54;;;;;;;9.47;6.90;;;10.50;1.00;;;;;;5117373;28;20938;-59
2023/06/02 02:47:21;;;;;;;11.30;6.90;;;10.50;1.00;;;;;;5117702;28;20462;-60
2023/06/02 02:49:48;;;;;;;10.60;7.03;;;10.50;1.00;;;;;;5117764;28;20434;-59
2023/06/02 02:52:17;;;;;;;11.43;6.53;;;10.50;1.00;;;;;;5117982;28;20505;-60
2023/06/02 02:54:44;;;;;;;13.03;7.40;;;10.30;1.00;;;;;;5117379;28;20467;-59
2023/06/02 02:57:11;;;;;;;9.43;7.37;;;10.50;1.00;;;;;;5117490;28;20459;-60
2023/06/02 02:59:38;;;;;;;9.77;8.00;;;10.50;1.00;;;;;;5118038;28;20430;-59
2023/06/02 03:02:07;;;;;;;9.80;8.77;;;10.60;1.00;;;;;;5120845;28;20487;-60
2023/06/02 03:04:34;;;;;;;13.63;9.13;;;10.60;1.00;;;;;;5121555;27;20463;-60
2023/06/02 03:07:02;;;;;;;8.90;8.00;;;10.30;1.00;;;;;;5121056;28;20473;-59
2023/06/02 03:09:31;;;;;;;11.43;8.23;;;10.30;1.00;;;;;;5121470;28;20736;-59
2023/06/02 03:11:58;;;;;;;9.27;8.37;;;10.30;1.00;;;;;;5121627;28;20459;-59
2023/06/02 03:14:28;;;;;;;16.43;7.43;;;10.30;1.00;;;;;;5121727;28;20838;-59
2023/06/02 03:16:56;;;;;;;12.97;8.67;;;10.30;1.00;;;;;;5121890;28;20479;-60
2023/06/02 03:19:26;;;;;;;8.20;7.40;;;10.10;1.00;;;;;;5121881;28;20459;-60
2023/06/02 03:21:55;;;;;;;9.20;7.70;;;10.20;1.00;;;;;;5121821;28;20525;-60
2023/06/02 03:24:22;;;;;;;10.77;8.50;;;10.20;1.00;;;;;;5122051;28;20470;-59
2023/06/02 03:26:55;;;;;;;8.90;8.00;;;10.10;3.10;;;;;;5120695;28;20487;-57
2023/06/02 03:29:22;;;;;;;7.70;6.90;;;10.20;30.40;;;;;;5118767;28;20887;-57
2023/06/02 03:31:52;;;;;;;9.97;7.30;;;10.20;1.00;;;;;;5118367;28;20826;-56
2023/06/02 03:34:20;;;;;;;11.63;8.77;;;10.30;1.00;;;;;;5118996;28;20759;-56
2023/06/02 03:36:48;;;;;;;13.70;9.73;;;10.20;1.00;;;;;;5118524;28;20808;-56
2023/06/02 03:39:15;;;;;;;13.90;9.97;;;10.20;1.00;;;;;;5118709;28;20463;-57
2023/06/02 03:41:42;;;;;;;11.57;9.87;;;10.10;1.00;;;;;;5118730;28;20466;-57
2023/06/02 03:44:11;;;;;;;16.43;7.90;;;10.20;1.00;;;;;;5120249;28;20438;-57
2023/06/02 03:46:38;;;;;;;12.73;8.50;;;10.20;1.00;;;;;;5120088;28;20759;-53
2023/06/02 03:49:05;;;;;;;13.10;8.60;;;10.10;1.00;;;;;;5120023;28;20463;-57
2023/06/02 03:51:33;;;;;;;14.83;8.70;;;10.00;1.00;;;;;;5119814;28;20470;-56
2023/06/02 03:54:00;;;;;;;15.60;10.47;;;10.10;1.00;;;;;;5120459;28;20898;-57
2023/06/02 03:56:27;;;;;;;17.27;12.60;;;10.20;1.00;;;;;;5120133;28;20891;-57
2023/06/02 03:58:55;;;;;;;14.70;10.37;;;10.20;1.00;;;;;;5119885;28;20966;-55
2023/06/02 04:01:23;;;;;;;11.80;10.07;;;10.10;1.00;;;;;;5119700;28;20484;-57
2023/06/02 04:03:51;;;;;;;14.03;10.10;;;10.20;1.00;;;;;;5120277;28;20468;-56
2023/06/02 04:06:18;;;;;;;21.63;14.97;;;10.30;1.00;;;;;;5119895;28;20501;-56
2023/06/02 04:08:46;;;;;;;16.53;11.70;;;10.20;1.00;;;;;;5119803;28;20864;-59
2023/06/02 04:11:13;;;;;;;12.90;10.07;;;10.10;1.00;;;;;;5119287;28;20528;-56
2023/06/02 04:13:40;;;;;;;12.50;9.70;;;10.20;1.00;;;;;;5120024;28;20546;-56
2023/06/02 04:16:08;;;;;;;12.10;9.23;;;10.10;1.00;;;;;;5119611;28;20463;-58
2023/06/02 04:18:40;;;;;;;16.43;9.37;;;10.20;1.00;;;;;;5119577;28;20463;-56
2023/06/02 04:21:07;;;;;;;15.57;9.20;;;10.00;1.00;;;;;;5119728;28;20463;-57
2023/06/02 04:23:34;;;;;;;11.47;9.10;;;10.00;1.00;;;;;;5119676;28;20464;-57
2023/06/02 04:26:01;;;;;;;11.50;8.00;;;10.10;1.00;;;;;;5119756;28;20847;-57
2023/06/02 04:28:30;;;;;;;19.17;8.10;;;10.20;1.00;;;;;;5118926;28;20513;-57
2023/06/02 04:30:59;;;;;;;15.50;7.90;;;10.30;1.00;;;;;;5118730;28;20889;-57
2023/06/02 04:33:26;;;;;;;11.03;7.67;;;10.30;1.00;;;;;;5118697;28;20441;-57
2023/06/02 04:35:56;;;;;;;10.30;9.30;;;10.40;1.00;;;;;;5119562;28;20460;-56
2023/06/02 04:38:24;;;;;;;16.13;9.37;;;10.20;1.00;;;;;;5118197;28;20896;-55
2023/06/02 04:40:51;;;;;;;8.97;7.80;;;10.10;1.00;;;;;;5117605;28;20505;-57
2023/06/02 04:43:18;;;;;;;10.40;8.40;;;10.10;1.00;;;;;;5118847;28;20459;-57
2023/06/02 04:45:47;;;;;;;17.57;7.73;;;10.20;1.00;;;;;;5119140;28;20438;-57
2023/06/02 04:48:14;;;;;;;13.47;7.13;;;10.30;99.90;;;;;;5119048;28;20517;-58
2023/06/02 04:50:41;;;;;;;10.87;6.80;;;10.30;1.00;;;;;;5118518;28;20752;-56
2023/06/02 04:53:10;;;;;;;8.30;7.03;;;10.20;1.00;;;;;;5118744;27;20735;-56
2023/06/02 04:55:37;;;;;;;10.33;6.40;;;10.20;99.90;;;;;;5118850;28;20974;-56
2023/06/02 04:58:05;;;;;;;16.10;8.23;;;10.30;1.00;;;;;;5118475;28;20462;-56
2023/06/02 05:00:35;;;;;;;16.70;7.60;;;10.30;1.00;;;;;;5118457;28;20474;-56
2023/06/02 05:03:02;;;;;;;10.70;7.20;;;10.50;99.90;;;;;;5117118;28;20483;-57
2023/06/02 05:05:29;;;;;;;12.70;7.37;;;10.50;99.90;;;;;;5117823;28;20442;-57
2023/06/02 05:07:56;;;;;;;8.80;6.30;;;10.50;99.90;;;;;;5118184;28;20479;-57
2023/06/02 05:10:27;;;;;;;10.03;7.50;;;10.50;99.90;;;;;;5118931;28;20456;-56
2023/06/02 05:12:54;;;;;;;11.87;6.73;;;10.50;99.90;;;;;;5117020;28;20528;-56
2023/06/02 05:15:21;;;;;;;13.07;7.30;;;10.30;99.90;;;;;;5115981;28;20456;-54
2023/06/02 05:17:48;;;;;;;12.70;7.50;;;10.50;1.00;;;;;;5117093;28;20459;-56
2023/06/02 05:20:17;;;;;;;9.70;7.13;;;10.50;99.90;;;;;;5114984;28;20914;-58
2023/06/02 05:22:44;;;;;;;7.97;7.13;;;10.50;99.90;;;;;;5117079;28;20481;-57
2023/06/02 05:25:11;;;;;;;13.40;7.63;;;10.50;99.90;;;;;;5116616;28;20426;-57
2023/06/02 05:27:41;;;;;;;14.00;8.80;;;10.60;99.90;;;;;;5117355;28;20490;-56
2023/06/02 05:30:11;;;;;;;13.53;8.40;;;10.50;99.90;;;;;;5117260;28;20456;-58
2023/06/02 05:32:38;;;;;;;10.70;8.10;;;10.40;99.90;;;;;;5115196;28;20462;-58
2023/06/02 05:35:06;;;;;;;12.43;10.00;;;10.40;99.90;;;;;;5117972;28;20795;-59
2023/06/02 05:37:33;;;;;;;11.83;9.03;;;10.30;99.90;;;;;;5118283;28;20452;-59
2023/06/02 05:40:00;;;;;;;12.03;10.30;;;10.40;99.90;;;;;;5118073;28;20462;-58
2023/06/02 05:42:27;;;;;;;20.40;12.27;;;10.50;99.90;;;;;;5117717;28;20455;-60
2023/06/02 05:44:56;;;;;;;16.97;9.93;;;10.60;99.90;;;;;;5117669;28;20896;-60
2023/06/02 05:47:23;;;;;;;10.33;9.27;;;10.70;99.90;;;;;;5116594;28;20866;-61
2023/06/02 05:49:50;;;;;;;16.43;9.90;;;10.80;99.90;;;;;;5116830;28;20462;-60
2023/06/02 05:52:17;;;;;;;12.23;8.97;;;10.80;99.90;;;;;;5116844;28;20463;-60
2023/06/02 05:54:44;;;;;;;17.10;9.13;;;10.60;99.90;;;;;;5115940;28;20769;-60
2023/06/02 05:57:11;;;;;;;9.73;8.17;;;10.50;99.90;;;;;;5116322;28;20456;-61
2023/06/02 05:59:39;;;;;;;12.87;8.77;;;10.70;99.90;;;;;;5115921;28;20459;-61
2023/06/02 06:02:11;;;;;;;15.23;8.97;;;11.00;99.90;;;;;;5116554;28;20479;-61
2023/06/02 06:04:38;;;;;;;11.90;7.73;;;11.30;99.90;;;;;;5117211;28;20460;-60
2023/06/02 06:07:06;;;;;;;16.43;8.83;;;11.10;99.90;;;;;;5117504;28;20703;-60
2023/06/02 06:09:33;;;;;;;14.73;8.70;;;11.10;99.90;;;;;;5117598;28;20467;-60
2023/06/02 06:12:00;;;;;;;14.27;8.80;;;11.30;99.90;;;;;;5117632;28;20466;-60
2023/06/02 06:14:27;;;;;;;13.50;8.20;;;11.30;99.90;;;;;;5116051;28;20487;-60
2023/06/02 06:16:55;;;;;;;15.57;9.37;;;11.20;99.90;;;;;;5115965;28;20463;-60
2023/06/02 06:19:23;;;;;;;12.87;8.70;;;11.10;99.90;;;;;;5115583;28;20445;-60
2023/06/02 06:21:50;;;;;;;11.60;8.93;;;11.00;99.90;;;;;;5116323;28;20540;-61
2023/06/02 06:24:18;;;;;;;17.30;9.00;;;11.20;99.90;;;;;;5116072;28;20546;-61
2023/06/02 06:26:45;;;;;;;14.50;7.83;;;11.30;99.90;;;;;;5115825;28;20934;-60
2023/06/02 06:29:12;;;;;;;14.57;7.20;;;11.50;99.90;;;;;;5117247;28;20547;-59
2023/06/02 06:31:39;;;;;;;16.60;7.90;;;11.60;99.90;;;;;;5118030;28;20470;-60
2023/06/02 06:34:08;;;;;;;12.17;7.80;;;11.50;99.90;;;;;;5117713;28;20520;-60
2023/06/02 06:36:37;;;;;;;13.50;7.80;;;11.60;99.90;;;;;;5120957;28;20464;-59
2023/06/02 06:39:04;;;;;;;13.53;8.50;;;11.60;99.90;;;;;;5121287;28;20506;-60
2023/06/02 06:41:31;;;;;;;14.67;9.00;;;11.60;99.90;;;;;;5121566;28;20478;-59
2023/06/02 06:43:59;;;;;;;12.17;9.00;;;11.70;99.90;;;;;;5121168;28;20479;-60
2023/06/02 06:46:26;;;;;;;14.40;8.23;;;11.70;52.00;;;;;;5120193;28;20459;-60
2023/06/02 06:48:53;;;;;;;11.40;7.10;;;11.60;99.90;;;;;;5120580;28;20461;-60
2023/06/02 06:51:20;;;;;;;12.23;7.13;;;11.80;99.90;;;;;;5120298;28;20460;-60
2023/06/02 06:53:49;;;;;;;10.20;7.20;;;12.00;76.10;;;;;;5120380;28;20459;-60
2023/06/02 06:56:16;;;;;;;11.30;6.37;;;11.50;48.90;;;;;;5121551;28;20799;-59
2023/06/02 06:58:43;;;;;;;10.40;7.83;;;11.30;53.80;;;;;;5121024;28;20458;-60
2023/06/02 07:01:12;;;;;;;13.93;7.60;;;11.20;99.90;;;;;;5121023;28;20810;-61
2023/06/02 07:03:39;;;;;;;12.73;7.20;;;11.70;99.90;;;;;;5121200;28;20459;-59
2023/06/02 07:06:06;;;;;;;10.30;6.80;;;12.10;99.90;;;;;;5120645;28;20532;-60
2023/06/02 07:08:36;;;;;;;11.53;8.07;;;12.10;33.70;;;;;;5121240;28;20509;-59
2023/06/02 07:11:04;;;;;;;12.53;7.70;;;12.00;1.30;;;;;;5120749;28;20438;-58
2023/06/02 07:13:32;;;;;;;10.20;6.60;;;12.00;1.00;;;;;;5120564;27;20441;-61
2023/06/02 07:15:59;;;;;;;12.20;7.90;;;11.80;54.90;;;;;;5120328;28;20459;-60
2023/06/02 07:18:26;;;;;;;10.63;7.00;;;11.90;11.80;;;;;;5121276;28;20878;-60
2023/06/02 07:20:53;;;;;;;10.23;7.97;;;11.70;1.00;;;;;;5120533;27;20459;-60
2023/06/02 07:23:20;;;;;;;13.30;8.53;;;11.70;1.00;;;;;;5120291;28;20760;-60
2023/06/02 07:25:47;;;;;;;13.47;7.70;;;11.50;12.40;;;;;;5120865;28;20941;-59
2023/06/02 07:28:16;;;;;;;17.23;8.20;;;11.70;1.00;;;;;;5119711;28;20541;-61
2023/06/02 07:30:48;;;;;;;9.73;7.20;;;12.10;1.00;;;;;;5120315;28;20435;-59
2023/06/02 07:33:16;;;;;;;10.37;8.53;;;12.20;1.00;;;;;;5120568;28;20463;-60
2023/06/02 07:35:43;;;;;;;10.27;8.63;;;12.20;41.30;;;;;;5120336;28;20471;-59
2023/06/02 07:38:10;;;;;;;15.20;8.90;;;12.50;10.90;;;;;;5120783;28;20460;-61
2023/06/02 07:40:37;;;;;;;13.97;9.43;;;12.80;1.00;;;;;;5119526;28;20886;-60
2023/06/02 07:43:05;;;;;;;10.73;9.63;;;13.20;5.70;;;;;;5120209;28;20463;-59
2023/06/02 07:45:33;;;;;;;12.00;9.00;;;13.20;1.00;;;;;;5119364;28;20445;-60
2023/06/02 07:48:01;;;;;;;12.77;9.67;;;13.10;1.00;;;;;;5119896;28;20490;-60
2023/06/02 07:50:28;;;;;;;19.00;9.17;;;13.20;1.00;;;;;;5118695;28;20478;-60
2023/06/02 07:52:56;;;;;;;12.20;8.80;;;13.30;1.00;;;;;;5118350;28;20716;-61
2023/06/02 07:55:24;;;;;;;9.67;7.80;;;13.40;1.00;;;;;;5118597;28;20830;-61
2023/06/02 07:57:52;;;;;;;14.27;8.50;;;13.30;1.00;;;;;;5118729;28;20455;-59
2023/06/02 08:00:21;;;;;;;12.30;8.83;;;13.50;1.00;;;;;;5118832;28;20455;-59
2023/06/02 08:02:49;;;;;;;11.10;8.17;;;13.20;1.00;;;;;;5118207;27;20581;-58
2023/06/02 08:05:17;;;;;;;9.93;7.70;;;13.50;1.00;;;;;;5119953;28;20459;-58
2023/06/02 08:07:45;;;;;;;15.27;8.13;;;13.80;1.00;;;;;;5119805;28;20784;-59
2023/06/02 08:10:13;;;;;;;11.27;7.90;;;13.70;1.00;;;;;;5119817;28;20464;-58
2023/06/02 08:12:40;;;;;;;12.67;8.43;;;13.60;1.00;;;;;;5119367;28;20463;-57
2023/06/02 08:15:08;;;;;;;9.50;7.07;;;14.00;1.00;;;;;;5119536;28;20554;-58
2023/06/02 08:17:35;;;;;;;9.80;8.80;;;14.00;1.00;;;;;;5119646;28;20534;-58
2023/06/02 08:20:06;;;;;;;14.13;9.80;;;14.20;1.00;;;;;;5119742;28;20469;-57
2023/06/02 08:22:34;;;;;;;16.30;8.77;;;14.20;1.00;;;;;;5119626;28;20434;-58
2023/06/02 08:25:02;;;;;;;11.20;8.93;;;14.40;1.00;;;;;;5120005;28;20521;-59
2023/06/02 08:27:30;;;;;;;14.90;8.23;;;14.70;1.00;;;;;;5119678;28;20491;-58
2023/06/02 08:29:57;;;;;;;9.17;7.13;;;14.80;1.00;;;;;;5119681;28;20944;-60
2023/06/02 08:32:25;;;;;;;8.90;6.70;;;14.50;1.00;;;;;;5119500;28;20463;-58
2023/06/02 08:34:55;;;;;;;9.13;7.33;;;14.40;1.00;;;;;;5119336;28;20459;-58
2023/06/02 08:37:25;;;;;;;14.40;7.23;;;14.00;1.00;;;;;;5119029;28;20463;-58
2023/06/02 08:39:52;;;;;;;12.23;6.60;;;13.60;1.00;;;;;;5119088;28;20459;-58
2023/06/02 08:42:22;;;;;;;6.60;5.80;;;13.70;1.00;;;;;;5119355;28;20503;-58
2023/06/02 08:44:49;;;;;;;10.07;6.13;;;14.20;1.00;;;;;;5118642;28;20459;-58
2023/06/02 08:47:22;;;;;;;9.47;6.03;;;14.40;1.00;;;;;;5119110;28;20466;-58
2023/06/02 08:49:50;;;;;;;15.37;7.40;;;14.10;1.00;;;;;;5118980;28;20876;-58
2023/06/02 08:52:21;;;;;;;8.40;6.30;;;13.40;1.00;;;;;;5119254;28;20466;-58
2023/06/02 08:54:50;;;;;;;9.17;6.40;;;13.30;1.00;;;;;;5118687;28;20764;-57
2023/06/02 08:57:22;;;;;;;11.03;7.00;;;14.00;1.00;;;;;;5118428;28;20889;-58
2023/06/02 08:59:50;;;;;;;12.17;7.43;;;14.40;99.90;;;;;;5119035;28;20873;-58
2023/06/02 09:02:18;;;;;;;8.70;6.53;;;14.30;99.90;;;;;;5118333;28;20523;-58
2023/06/02 09:04:45;;;;;;;11.90;6.20;;;13.70;99.90;;;;;;5118590;28;20516;-58
2023/06/02 09:07:20;;;;;;;10.20;6.57;;;13.60;99.90;;;;;;5118486;28;20880;-59
2023/06/02 09:09:51;;;;;;;9.17;8.20;;;13.80;99.90;;;;;;5118724;28;20516;-59
2023/06/02 09:12:19;;;;;;;15.13;7.30;;;14.40;1.00;;;;;;5118878;28;20941;-58
2023/06/02 09:14:47;;;;;;;13.57;8.13;;;14.10;99.90;;;;;;5117734;28;20521;-58
2023/06/02 09:17:29;;;;;;;9.33;7.40;;;14.00;99.90;;;;;;5118258;28;20463;-58
2023/06/02 09:19:57;;;;;;;10.90;7.00;;;14.80;1.00;;;;;;5115565;28;20485;-59
2023/06/02 09:22:25;;;;;;;11.73;7.20;;;15.50;99.90;;;;;;5117173;28;20529;-59
2023/06/02 09:24:54;;;;;;;10.80;9.00;;;16.00;99.90;;;;;;5116668;27;20430;-59
2023/06/02 09:27:24;;;;;;;9.80;8.80;;;15.70;99.90;;;;;;5117918;28;20459;-58
2023/06/02 09:29:51;;;;;;;13.10;9.60;;;16.50;99.90;;;;;;5117086;28;20472;-60
2023/06/02 09:32:19;;;;;;;12.57;10.77;;;17.30;99.90;;;;;;5117911;28;20555;-59
2023/06/02 09:34:48;;;;;;;12.37;11.07;;;16.80;99.90;;;;;;5117552;28;20512;-58
2023/06/02 09:37:17;;;;;;;14.97;10.43;;;17.30;99.90;;;;;;5117550;28;20502;-58
2023/06/02 09:39:48;;;;;;;12.43;10.87;;;17.80;99.90;;;;;;5117888;28;20470;-59
2023/06/02 09:42:19;;;;;;;12.37;11.17;;;16.10;99.90;;;;;;5118208;28;20464;-59
2023/06/02 09:45:05;;;;;;;14.27;12.33;;;16.60;99.90;;;;;;5117427;28;20470;-60
2023/06/02 09:47:38;;;;;;;18.30;11.40;;;17.50;99.90;;;;;;5118335;28;20455;-58
2023/06/02 09:50:06;;;;;;;12.93;11.30;;;18.50;99.90;;;;;;5120314;28;20455;-61
2023/06/02 09:52:33;;;;;;;12.80;10.80;;;19.10;95.60;;;;;;5121944;28;20900;-60
2023/06/02 09:55:00;;;;;;;12.50;10.80;;;19.20;44.10;;;;;;5119126;28;20459;-61
2023/06/02 09:57:31;;;;;;;14.13;11.17;;;18.20;10.60;;;;;;5118441;28;20455;-60
2023/06/02 10:00:00;;;;;;;12.20;10.93;;;18.60;7.00;;;;;;5113971;28;20528;-58
2023/06/02 10:02:27;;;;;;;15.50;11.10;;;19.00;13.20;;;;;;5103671;28;20509;-59
2023/06/02 10:04:55;;;;;;;11.03;10.00;;;19.70;1.00;;;;;;5103695;28;20559;-59
2023/06/02 10:07:36;;;;;;;10.33;9.33;;;19.60;1.00;;;;;;5097730;28;20452;-59
2023/06/02 10:10:17;;;;;;;11.90;8.93;;;19.10;1.00;;;;;;5111071;28;20463;-59
2023/06/02 10:12:59;;;;;;;10.93;8.70;;;19.50;1.00;;;;;;5128381;27;20463;-61
2023/06/02 10:15:46;;;;;;;11.23;8.27;;;19.80;1.00;;;;;;5125318;27;20501;-59
2023/06/02 10:18:46;;;;;;;8.87;7.03;;;19.40;1.00;;;;;;5127477;28;20733;-60
2023/06/02 10:21:22;;;;;;;9.93;7.23;;;19.70;1.00;;;;;;5106711;28;20483;-60
2023/06/02 10:23:58;;;;;;;11.30;7.03;;;18.60;1.00;;;;;;5107653;28;20997;-60
2023/06/02 10:26:41;;;;;;;11.57;7.37;;;19.40;1.00;;;;;;5106733;28;20456;-60
2023/06/02 10:29:10;;;;;;;11.70;7.07;;;19.80;1.00;;;;;;5119132;28;20494;-60
2023/06/02 10:31:37;;;;;;;10.00;6.93;;;20.30;1.00;;;;;;5124961;28;20459;-61
2023/06/02 10:34:05;;;;;;;9.07;6.80;;;20.70;1.00;;;;;;5125089;28;20478;-59
2023/06/02 10:37:17;;;;;;;10.13;6.00;;;20.80;1.00;;;;;;5124364;28;20733;-62
2023/06/02 10:39:53;;;;;;;8.63;5.70;;;20.90;1.00;;;;;;5103835;28;20451;-59
2023/06/02 10:42:22;;;;;;;9.40;7.37;;;21.20;1.00;;;;;;5104097;28;20468;-60
2023/06/02 10:44:53;;;;;;;9.57;6.60;;;21.10;1.00;;;;;;5108954;28;20456;-60
2023/06/02 10:47:36;;;;;;;11.37;6.50;;;21.20;1.00;;;;;;5121752;28;20447;-61
2023/06/02 10:50:05;;;;;;;9.93;7.23;;;21.20;1.00;;;;;;5121287;27;20568;-60
2023/06/02 10:52:34;;;;;;;10.90;7.00;;;21.30;1.00;;;;;;5121736;28;20477;-59
2023/06/02 10:55:30;;;;;;;12.43;7.97;;;21.10;1.00;;;;;;5107019;28;20631;-62
2023/06/02 10:57:58;;;;;;;8.57;6.23;;;21.50;1.00;;;;;;5109501;28;20513;-60
2023/06/02 11:00:50;;;;;;;9.47;8.07;;;21.70;1.00;;;;;;5108256;28;20460;-60
2023/06/02 11:03:34;;;;;;;11.97;7.43;;;22.10;1.00;;;;;;5106394;28;20487;-59
2023/06/02 11:06:19;;;;;;;9.97;6.47;;;20.80;1.00;;;;;;5104943;28;20635;-59
2023/06/02 11:08:47;;;;;;;10.00;6.30;;;21.30;1.00;;;;;;5106629;28;20561;-59
2023/06/02 11:11:53;;;;;;;15.77;8.30;;;21.90;1.00;;;;;;5117911;28;20542;-59
2023/06/02 11:14:26;;;;;;;9.33;7.00;;;22.40;1.00;;;;;;5121811;27;20767;-59
2023/06/02 11:17:32;;;;;;;9.33;6.87;;;21.80;1.00;;;;;;5117152;27;20892;-59
2023/06/02 11:20:00;;;;;;;8.17;7.13;;;21.60;1.00;;;;;;5121171;27;20447;-60
2023/06/02 11:22:27;;;;;;;10.67;8.00;;;21.20;1.00;;;;;;5118902;28;20461;-59
2023/06/02 11:24:55;;;;;;;10.00;7.60;;;21.20;1.00;;;;;;5120216;28;20756;-59
2023/06/02 11:27:36;;;;;;;11.47;8.50;;;21.40;1.00;;;;;;5118806;28;20534;-58
2023/06/02 11:30:09;;;;;;;9.93;8.50;;;21.10;1.00;;;;;;5120739;27;20489;-60
2023/06/02 11:32:38;;;;;;;9.50;8.53;;;21.60;1.00;;;;;;5120240;28;20763;-60
2023/06/02 11:35:08;;;;;;;11.43;8.43;;;22.10;1.00;;;;;;5123210;28;20466;-60
2023/06/02 11:37:38;;;;;;;9.03;8.23;;;22.30;1.00;;;;;;5121461;28;20455;-58
2023/06/02 11:40:07;;;;;;;10.57;8.13;;;21.80;1.00;;;;;;5121621;28;20455;-58
2023/06/02 11:42:39;;;;;;;9.30;8.40;;;22.00;1.00;;;;;;5120637;28;20446;-59
2023/06/02 11:45:18;;;;;;;9.43;8.20;;;21.90;1.00;;;;;;5121366;28;20455;-58
2023/06/02 11:47:47;;;;;;;11.53;7.63;;;21.90;1.00;;;;;;5120183;28;20463;-58
2023/06/02 11:50:17;;;;;;;12.80;8.63;;;21.20;1.00;;;;;;5123359;28;20487;-59
2023/06/02 11:52:45;;;;;;;10.67;8.77;;;21.60;1.00;;;;;;5125582;28;20455;-58
2023/06/02 11:55:12;;;;;;;12.50;8.47;;;21.90;1.00;;;;;;5122960;28;20455;-60
2023/06/02 11:57:39;;;;;;;11.63;7.70;;;21.70;1.00;;;;;;5123023;28;20516;-59
2023/06/02 12:00:12;;;;;;;11.13;8.37;;;21.80;1.00;;;;;;5122742;28;20561;-59
2023/06/02 12:02:48;;;;;;;9.50;8.37;;;22.20;1.00;;;;;;5126906;28;20480;-59
2023/06/02 12:05:35;;;;;;;8.23;7.20;;;22.70;1.00;;;;;;5123013;28;20764;-59
2023/06/02 12:08:10;;;;;;;10.80;7.80;;;23.50;1.00;;;;;;5126967;28;20465;-62
2023/06/02 12:10:38;;;;;;;9.17;7.50;;;23.70;1.00;;;;;;5126293;28;20459;-59
2023/06/02 12:13:05;;;;;;;10.20;6.13;;;23.00;1.00;;;;;;5122690;28;20463;-59
2023/06/02 12:15:33;;;;;;;10.53;6.20;;;22.70;1.00;;;;;;5122478;28;20543;-59
2023/06/02 12:18:05;;;;;;;10.53;7.10;;;23.10;1.00;;;;;;5121864;28;20459;-61
2023/06/02 12:20:42;;;;;;;8.43;6.73;;;23.30;1.00;;;;;;5124310;28;20872;-60
2023/06/02 12:23:10;;;;;;;11.17;6.57;;;23.70;1.00;;;;;;5121951;28;20452;-60
2023/06/02 12:25:38;;;;;;;14.60;7.40;;;23.30;1.00;;;;;;5120760;28;20752;-60
2023/06/02 12:28:11;;;;;;;11.67;6.23;;;22.80;1.00;;;;;;5121815;28;20520;-59
2023/06/02 12:30:38;;;;;;;7.63;6.50;;;22.40;1.00;;;;;;5121724;28;20546;-61
2023/06/02 12:33:06;;;;;;;9.47;6.57;;;22.20;1.00;;;;;;5120370;28;20455;-62
2023/06/02 12:35:33;;;;;;;9.33;6.27;;;21.30;1.00;;;;;;5120084;28;20455;-60
2023/06/02 12:38:03;;;;;;;11.23;7.40;;;21.50;1.00;;;;;;5120468;28;20459;-61
2023/06/02 12:40:30;;;;;;;7.57;6.80;;;22.40;1.00;;;;;;5120154;28;20447;-59
2023/06/02 12:42:57;;;;;;;11.63;7.10;;;22.00;1.00;;;;;;5119601;28;20455;-59
2023/06/02 12:45:24;;;;;;;10.57;6.10;;;22.40;1.00;;;;;;5118057;28;20448;-59
2023/06/02 12:47:52;;;;;;;11.67;6.20;;;21.80;1.00;;;;;;5119322;28;20933;-60
2023/06/02 12:50:20;;;;;;;9.70;6.20;;;22.10;1.00;;;;;;5119740;28;20932;-58
2023/06/02 12:52:47;;;;;;;10.50;6.30;;;22.20;1.00;;;;;;5118177;28;20557;-59
2023/06/02 12:55:16;;;;;;;9.00;6.60;;;22.00;1.00;;;;;;5117850;28;20458;-59
2023/06/02 12:57:44;;;;;;;11.77;6.10;;;22.50;1.00;;;;;;5118349;28;20452;-58